createdAt,value
2019-02-12T00:02:01.185Z,98.00
2019-02-12T00:04:31.224Z,97.90
2019-02-12T00:07:01.156Z,97.70
2019-02-12T00:09:31.631Z,97.60
2019-02-12T00:12:01.854Z,97.60
2019-02-12T00:14:31.763Z,97.80
2019-02-12T00:17:01.721Z,97.70
2019-02-12T00:19:32.010Z,97.70
2019-02-12T00:22:01.905Z,97.60
2019-02-12T00:24:32.259Z,97.40
2019-02-12T00:27:02.212Z,97.40
2019-02-12T00:29:32.112Z,97.40
2019-02-12T00:32:02.405Z,97.40
2019-02-12T00:34:32.309Z,97.30
2019-02-12T00:37:02.219Z,97.10
2019-02-12T00:39:32.554Z,97.30
2019-02-12T00:42:02.494Z,97.40
2019-02-12T00:44:32.463Z,97.50
2019-02-12T00:47:02.809Z,97.50
2019-02-12T00:49:32.748Z,97.40
2019-02-12T00:52:02.616Z,97.60
2019-02-12T00:54:33.088Z,97.60
2019-02-12T00:57:03.523Z,97.50
2019-02-12T00:59:33.473Z,97.40
2019-02-12T01:02:03.740Z,97.50
2019-02-12T01:04:33.921Z,97.90
2019-02-12T01:07:03.835Z,97.80
2019-02-12T01:09:34.099Z,98.00
2019-02-12T01:12:04.468Z,97.70
2019-02-12T01:14:34.348Z,98.20
2019-02-12T01:17:04.787Z,98.70
2019-02-12T01:19:34.655Z,98.80
2019-02-12T01:22:04.555Z,98.70
2019-02-12T01:24:34.717Z,99.90
2019-02-12T01:27:04.962Z,99.90
2019-02-12T01:29:34.871Z,99.90
2019-02-12T01:32:05.175Z,99.90
2019-02-12T01:34:35.106Z,99.80
2019-02-12T01:37:05.028Z,99.80
2019-02-12T01:39:35.493Z,99.60
2019-02-12T01:42:05.990Z,99.30
2019-02-12T01:44:35.897Z,99.10
2019-02-12T01:47:06.314Z,98.90
2019-02-12T01:49:36.211Z,99.60
2019-02-12T01:52:06.083Z,99.60
2019-02-12T01:54:36.689Z,99.90
2019-02-12T01:57:06.905Z,99.90
2019-02-12T01:59:36.828Z,99.90
2019-02-12T02:02:07.147Z,99.90
2019-02-12T02:04:37.031Z,99.90
2019-02-12T02:07:07.023Z,99.90
2019-02-12T02:09:37.398Z,99.90
2019-02-12T02:12:07.684Z,99.90
2019-02-12T02:14:37.616Z,99.90
2019-02-12T02:17:07.621Z,99.90
2019-02-12T02:19:37.550Z,99.90
2019-02-12T02:22:07.473Z,99.90
2019-02-12T02:24:37.912Z,99.90
2019-02-12T02:27:08.091Z,99.90
2019-02-12T02:29:38.116Z,99.90
2019-02-12T02:32:08.104Z,99.90
2019-02-12T02:34:37.969Z,99.90
2019-02-12T02:37:08.415Z,99.90
2019-02-12T02:39:38.329Z,99.90
2019-02-12T02:42:08.616Z,99.90
2019-02-12T02:44:38.896Z,99.90
2019-02-12T02:47:08.953Z,99.90
2019-02-12T02:49:38.873Z,99.90
2019-02-12T02:52:09.128Z,99.90
2019-02-12T02:54:39.090Z,99.90
2019-02-12T02:57:09.265Z,99.90
2019-02-12T02:59:39.538Z,99.90
2019-02-12T03:02:09.530Z,99.90
2019-02-12T03:04:39.400Z,99.90
2019-02-12T03:07:09.546Z,99.90
2019-02-12T03:09:39.547Z,99.90
2019-02-12T03:12:10.114Z,99.90
2019-02-12T03:14:40.075Z,99.90
2019-02-12T03:17:10.073Z,99.90
2019-02-12T03:19:40.266Z,99.90
2019-02-12T03:22:10.124Z,99.90
2019-02-12T03:24:40.095Z,99.90
2019-02-12T03:27:10.422Z,99.90
2019-02-12T03:29:40.292Z,99.90
2019-02-12T03:32:10.257Z,99.90
2019-02-12T03:34:40.580Z,99.90
2019-02-12T03:37:10.440Z,99.90
2019-02-12T03:39:40.435Z,99.90
2019-02-12T03:42:10.820Z,99.90
2019-02-12T03:44:41.161Z,99.90
2019-02-12T03:47:11.244Z,99.90
2019-02-12T03:49:41.147Z,99.90
2019-02-12T03:52:13.050Z,99.90
2019-02-12T03:54:43.168Z,99.90
2019-02-12T03:57:13.101Z,99.90
2019-02-12T03:59:43.400Z,99.90
2019-02-12T04:02:13.739Z,99.90
2019-02-12T04:04:43.752Z,99.90
2019-02-12T04:07:13.673Z,99.90
2019-02-12T04:09:44.004Z,99.90
2019-02-12T04:12:13.888Z,99.90
2019-02-12T04:14:44.173Z,99.90
2019-02-12T04:17:14.473Z,99.90
2019-02-12T04:19:44.343Z,99.90
2019-02-12T04:22:22.333Z,99.90
2019-02-12T04:24:46.247Z,99.90
2019-02-12T04:27:16.144Z,99.90
2019-02-12T04:29:46.409Z,99.90
2019-02-12T04:32:16.804Z,99.90
2019-02-12T04:34:46.746Z,99.90
2019-02-12T04:37:16.631Z,99.90
2019-02-12T04:39:46.986Z,99.90
2019-02-12T04:42:16.899Z,99.90
2019-02-12T04:44:47.230Z,99.90
2019-02-12T04:47:17.507Z,99.90
2019-02-12T04:49:47.410Z,99.90
2019-02-12T04:52:17.342Z,99.90
2019-02-12T04:54:47.617Z,99.90
2019-02-12T04:57:17.581Z,99.90
2019-02-12T04:59:47.867Z,99.90
2019-02-12T05:02:18.178Z,99.90
2019-02-12T05:04:48.087Z,99.90
2019-02-12T05:07:18.002Z,99.90
2019-02-12T05:09:50.347Z,99.90
2019-02-12T05:12:21.619Z,99.90
2019-02-12T05:14:52.318Z,99.90
2019-02-12T05:17:22.270Z,99.90
2019-02-12T05:19:52.225Z,99.90
2019-02-12T05:22:22.454Z,99.90
2019-02-12T05:24:52.493Z,99.90
2019-02-12T05:27:22.402Z,99.90
2019-02-12T05:29:52.998Z,99.90
2019-02-12T05:32:22.976Z,99.90
2019-02-12T05:34:52.912Z,99.90
2019-02-12T05:37:22.898Z,99.90
2019-02-12T05:39:52.826Z,99.90
2019-02-12T05:42:22.756Z,99.90
2019-02-12T05:44:53.289Z,99.90
2019-02-12T05:47:23.316Z,99.90
2019-02-12T05:49:53.207Z,99.90
2019-02-12T05:52:23.326Z,99.90
2019-02-12T05:54:53.310Z,99.90
2019-02-12T05:57:23.226Z,99.90
2019-02-12T05:59:53.790Z,99.90
2019-02-12T06:02:23.746Z,99.90
2019-02-12T06:04:53.759Z,99.90
2019-02-12T06:07:23.949Z,99.90
2019-02-12T06:09:53.930Z,99.90
2019-02-12T06:12:23.887Z,99.90
2019-02-12T06:14:54.205Z,99.90
2019-02-12T06:17:24.181Z,99.90
2019-02-12T06:19:54.128Z,99.90
2019-02-12T06:22:24.580Z,99.90
2019-02-12T06:24:54.506Z,99.90
2019-02-12T06:27:24.387Z,99.90
2019-02-12T06:29:54.558Z,99.90
2019-02-12T06:32:24.536Z,99.90
2019-02-12T06:34:54.474Z,99.90
2019-02-12T06:37:24.587Z,99.90
2019-02-12T06:39:54.565Z,99.90
2019-02-12T06:42:24.456Z,99.90
2019-02-12T06:44:54.630Z,99.90
2019-02-12T06:47:24.605Z,99.90
2019-02-12T06:49:54.475Z,99.90
2019-02-12T06:52:24.778Z,99.90
2019-02-12T06:54:54.770Z,99.90
2019-02-12T06:57:24.652Z,99.90
2019-02-12T06:59:54.833Z,99.90
2019-02-12T07:03:00.740Z,99.90
2019-02-12T07:05:30.930Z,99.90
2019-02-12T07:08:41.020Z,99.90
2019-02-12T07:11:49.300Z,99.90
2019-02-12T07:14:55.237Z,99.90
2019-02-12T07:18:03.327Z,99.90
2019-02-12T07:21:35.189Z,99.90
2019-02-12T07:24:42.504Z,99.90
2019-02-12T07:28:08.127Z,99.90
2019-02-12T07:31:18.988Z,99.90
2019-02-12T07:34:23.112Z,99.90
2019-02-12T07:37:26.826Z,99.90
2019-02-12T07:40:17.745Z,99.90
2019-02-12T07:43:34.542Z,99.90
2019-02-12T07:46:41.169Z,99.90
2019-02-12T07:50:07.140Z,99.90
2019-02-12T07:53:30.586Z,99.90
2019-02-12T07:56:29.090Z,99.90
2019-02-12T07:59:27.239Z,99.90
2019-02-12T08:02:42.737Z,99.90
2019-02-12T08:05:51.028Z,99.90
2019-02-12T08:09:04.610Z,99.90
2019-02-12T08:12:04.940Z,99.90
2019-02-12T08:15:25.234Z,99.90
2019-02-12T08:18:13.992Z,99.90
2019-02-12T08:21:27.084Z,99.90
2019-02-12T08:24:40.774Z,99.90
2019-02-12T08:27:31.594Z,99.90
2019-02-12T08:30:54.479Z,99.90
2019-02-12T08:34:08.790Z,99.90
2019-02-12T08:36:54.877Z,99.90
2019-02-12T08:39:47.550Z,99.90
2019-02-12T08:42:53.954Z,99.90
2019-02-12T08:46:04.888Z,99.90
2019-02-12T08:48:54.884Z,99.90
2019-02-12T08:52:20.994Z,99.90
2019-02-12T08:55:21.095Z,99.90
2019-02-12T08:58:21.866Z,99.90
2019-02-12T09:01:28.262Z,99.90
2019-02-12T09:04:47.820Z,99.90
2019-02-12T09:07:44.046Z,99.90
2019-02-12T09:11:03.875Z,99.90
2019-02-12T09:13:47.915Z,99.90
2019-02-12T09:16:53.437Z,99.90
2019-02-12T09:19:45.364Z,99.90
2019-02-12T09:22:39.566Z,99.90
2019-02-12T09:25:39.438Z,99.90
2019-02-12T09:29:05.335Z,99.90
2019-02-12T09:32:24.230Z,99.90
2019-02-12T09:35:33.700Z,99.90
2019-02-12T09:38:46.352Z,99.90
2019-02-12T09:41:30.150Z,99.90
2019-02-12T09:44:52.407Z,99.90
2019-02-12T09:47:43.209Z,99.90
2019-02-12T09:51:06.203Z,99.90
2019-02-12T09:54:08.656Z,99.90
2019-02-12T09:57:38.388Z,99.80
2019-02-12T10:00:42.277Z,99.00
2019-02-12T10:04:04.698Z,98.60
2019-02-12T10:07:20.723Z,98.60
2019-02-12T10:10:43.060Z,97.10
2019-02-12T10:13:25.925Z,97.50
2019-02-12T10:16:38.512Z,96.50
2019-02-12T10:19:31.028Z,96.70
2019-02-12T10:22:40.461Z,96.30
2019-02-12T10:25:42.154Z,96.40
2019-02-12T10:29:01.190Z,97.00
2019-02-12T10:31:42.286Z,98.00
2019-02-12T10:34:12.431Z,96.60
2019-02-12T10:36:42.490Z,96.60
2019-02-12T10:39:16.535Z,96.10
2019-02-12T10:41:46.686Z,96.10
2019-02-12T10:44:16.484Z,96.10
2019-02-12T10:46:46.694Z,96.30
2019-02-12T10:49:16.462Z,96.40
2019-02-12T10:51:46.281Z,95.90
2019-02-12T10:54:16.463Z,96.10
2019-02-12T10:56:46.620Z,95.80
2019-02-12T10:59:16.392Z,95.80
2019-02-12T11:01:46.594Z,96.30
2019-02-12T11:04:16.370Z,95.50
2019-02-12T11:06:46.245Z,95.60
2019-02-12T11:09:16.452Z,95.40
2019-02-12T11:11:46.599Z,96.70
2019-02-12T11:14:16.382Z,95.70
2019-02-12T11:16:46.612Z,97.30
2019-02-12T11:19:16.350Z,95.00
2019-02-12T11:21:46.128Z,95.90
2019-02-12T11:24:16.290Z,96.90
2019-02-12T11:26:46.264Z,95.80
2019-02-12T11:29:16.036Z,95.80
2019-02-12T11:31:45.860Z,93.90
2019-02-12T11:34:16.016Z,94.90
2019-02-12T11:36:45.799Z,96.40
2019-02-12T11:39:15.670Z,94.80
2019-02-12T11:41:45.764Z,95.60
2019-02-12T11:44:15.913Z,95.00
2019-02-12T11:46:45.715Z,95.60
2019-02-12T11:49:15.707Z,94.30
2019-02-12T11:51:45.569Z,94.70
2019-02-12T11:54:15.523Z,95.20
2019-02-12T11:56:45.559Z,95.90
2019-02-12T11:59:15.704Z,95.20
2019-02-12T12:01:45.531Z,95.30
2019-02-12T12:04:15.712Z,94.80
2019-02-12T12:06:45.496Z,96.60
2019-02-12T12:09:15.341Z,95.30
2019-02-12T12:11:45.355Z,95.40
2019-02-12T12:14:15.518Z,94.50
2019-02-12T12:16:45.338Z,94.40
2019-02-12T12:19:15.498Z,93.00
2019-02-12T12:21:45.563Z,93.80
2019-02-12T12:24:15.527Z,93.70
2019-02-12T12:26:45.573Z,94.20
2019-02-12T12:29:15.833Z,94.30
2019-02-12T12:31:45.635Z,94.20
2019-02-12T12:34:15.382Z,94.00
2019-02-12T12:36:45.545Z,94.80
2019-02-12T12:39:15.327Z,94.80
2019-02-12T12:41:45.113Z,94.10
2019-02-12T12:44:15.288Z,94.20
2019-02-12T12:46:45.094Z,94.70
2019-02-12T12:49:14.837Z,94.60
2019-02-12T12:51:44.934Z,94.40
2019-02-12T12:54:14.859Z,94.70
2019-02-12T12:56:44.627Z,93.80
2019-02-12T12:59:14.671Z,94.70
2019-02-12T13:01:44.878Z,94.90
2019-02-12T13:04:14.627Z,95.20
2019-02-12T13:06:44.726Z,94.70
2019-02-12T13:09:14.568Z,95.30
2019-02-12T13:11:44.356Z,95.40
2019-02-12T13:14:14.481Z,95.80
2019-02-12T13:16:44.609Z,96.20
2019-02-12T13:19:14.388Z,96.20
2019-02-12T13:21:44.526Z,96.80
2019-02-12T13:24:14.323Z,96.50
2019-02-12T13:26:44.141Z,97.50
2019-02-12T13:29:14.177Z,97.20
2019-02-12T13:31:44.394Z,97.30
2019-02-12T13:34:14.150Z,97.40
2019-02-12T13:36:43.934Z,97.70
2019-02-12T13:39:14.139Z,98.20
2019-02-12T13:41:43.973Z,97.90
2019-02-12T13:44:13.770Z,97.80
2019-02-12T13:46:43.886Z,98.00
2019-02-12T13:49:13.630Z,98.70
2019-02-12T13:51:43.415Z,98.70
2019-02-12T13:54:14.768Z,99.30
2019-02-12T13:56:44.593Z,99.50
2019-02-12T13:59:14.391Z,99.50
2019-02-12T14:01:44.509Z,99.80
2019-02-12T14:04:14.629Z,99.90
2019-02-12T14:06:44.421Z,99.90
2019-02-12T14:09:14.575Z,99.90
2019-02-12T14:11:44.313Z,99.90
2019-02-12T14:14:14.043Z,99.90
2019-02-12T14:16:44.213Z,99.90
2019-02-12T14:19:14.371Z,99.40
2019-02-12T14:21:44.142Z,98.40
2019-02-12T14:24:14.265Z,98.40
2019-02-12T14:26:44.041Z,98.80
2019-02-12T14:29:13.821Z,99.30
2019-02-12T14:31:52.605Z,99.90
2019-02-12T14:34:15.662Z,99.70
2019-02-12T14:36:45.784Z,99.70
2019-02-12T14:39:15.601Z,99.90
2019-02-12T14:41:45.367Z,99.90
2019-02-12T14:44:15.526Z,99.90
2019-02-12T14:46:45.356Z,99.90
2019-02-12T14:49:15.517Z,99.90
2019-02-12T14:51:45.478Z,99.90
2019-02-12T14:54:15.295Z,99.90
2019-02-12T14:56:45.068Z,99.90
2019-02-12T14:59:15.226Z,99.90
2019-02-12T15:01:45.052Z,99.90
2019-02-12T15:04:14.832Z,99.90
2019-02-12T15:06:45.384Z,99.90
2019-02-12T15:09:15.170Z,99.90
2019-02-12T15:11:44.933Z,99.90
2019-02-12T15:14:14.938Z,99.90
2019-02-12T15:16:44.721Z,99.90
2019-02-12T15:19:14.522Z,99.90
2019-02-12T15:21:44.977Z,99.90
2019-02-12T15:24:14.793Z,99.90
2019-02-12T15:26:44.548Z,99.90
2019-02-12T15:29:14.526Z,99.90
2019-02-12T15:31:44.335Z,99.90
2019-02-12T15:34:14.115Z,99.90
2019-02-12T15:36:44.282Z,99.90
2019-02-12T15:39:14.046Z,99.90
2019-02-12T15:41:43.836Z,99.90
2019-02-12T15:44:13.950Z,99.90
2019-02-12T15:46:43.739Z,99.90
2019-02-12T15:49:13.488Z,99.90
2019-02-12T15:51:43.570Z,99.90
2019-02-12T15:54:13.761Z,99.90
2019-02-12T15:56:43.593Z,99.90
2019-02-12T15:59:14.396Z,99.90
2019-02-12T16:01:46.965Z,99.90
2019-02-12T16:04:16.826Z,99.90
2019-02-12T16:06:46.641Z,99.90
2019-02-12T16:09:17.760Z,99.90
2019-02-12T16:11:48.099Z,99.90
2019-02-12T16:14:18.702Z,99.90
2019-02-12T16:16:50.160Z,99.90
2019-02-12T16:19:21.109Z,99.90
2019-02-12T16:21:51.356Z,99.90
2019-02-12T16:24:21.436Z,99.90
2019-02-12T16:26:51.198Z,99.90
2019-02-12T16:29:21.297Z,99.90
2019-02-12T16:31:51.094Z,99.90
2019-02-12T16:34:20.872Z,99.90
2019-02-12T16:36:50.950Z,99.90
2019-02-12T16:39:21.073Z,99.90
2019-02-12T16:41:50.946Z,99.90
2019-02-12T16:44:20.998Z,99.90
2019-02-12T16:46:50.844Z,99.90
2019-02-12T16:49:20.597Z,99.90
2019-02-12T16:51:50.742Z,99.90
2019-02-12T16:54:20.647Z,99.90
2019-02-12T16:56:50.409Z,99.90
2019-02-12T16:59:20.339Z,99.90
2019-02-12T17:01:50.405Z,99.90
2019-02-12T17:04:20.147Z,99.90
2019-02-12T17:06:49.941Z,99.90
2019-02-12T17:09:19.998Z,99.90
2019-02-12T17:11:49.731Z,99.90
2019-02-12T17:14:19.473Z,99.90
2019-02-12T17:16:49.604Z,99.90
2019-02-12T17:19:19.347Z,99.90
2019-02-12T17:21:49.232Z,99.90
2019-02-12T17:24:19.553Z,99.90
2019-02-12T17:26:49.514Z,99.90
2019-02-12T17:29:19.254Z,99.90
2019-02-12T17:31:49.401Z,99.90
2019-02-12T17:34:19.205Z,99.90
2019-02-12T17:36:48.954Z,99.90
2019-02-12T17:39:19.137Z,99.90
2019-02-12T17:41:49.157Z,99.90
2019-02-12T17:44:18.932Z,99.90
2019-02-12T17:46:48.992Z,99.90
2019-02-12T17:49:18.747Z,99.90
2019-02-12T17:51:48.552Z,99.90
2019-02-12T17:54:18.647Z,99.90
2019-02-12T17:56:48.644Z,99.90
2019-02-12T17:59:18.464Z,99.90
2019-02-12T18:01:48.279Z,99.90
2019-02-12T18:04:18.399Z,99.90
2019-02-12T18:06:48.190Z,99.90
2019-02-12T18:09:18.012Z,99.90
2019-02-12T18:11:48.141Z,99.90
2019-02-12T18:14:18.207Z,99.90
2019-02-12T18:16:48.057Z,99.90
2019-02-12T18:19:18.055Z,99.90
2019-02-12T18:21:48.089Z,99.90
2019-02-12T18:24:17.925Z,99.90
2019-02-12T18:26:48.034Z,99.90
2019-02-12T18:29:18.064Z,99.90
2019-02-12T18:31:47.875Z,99.90
2019-02-12T18:34:18.059Z,99.90
2019-02-12T18:36:47.837Z,99.90
2019-02-12T18:39:17.632Z,99.90
2019-02-12T18:41:47.654Z,99.90
2019-02-12T18:44:17.719Z,99.90
2019-02-12T18:46:47.523Z,99.90
2019-02-12T18:49:17.907Z,99.90
2019-02-12T18:51:47.660Z,99.90
2019-02-12T18:54:17.460Z,99.90
2019-02-12T18:56:47.339Z,99.90
2019-02-12T18:59:17.365Z,99.90
2019-02-12T19:01:47.296Z,99.90
2019-02-12T19:04:17.032Z,99.90
2019-02-12T19:06:47.217Z,99.90
2019-02-12T19:09:17.076Z,99.90
2019-02-12T19:11:54.165Z,99.90
2019-02-12T19:14:18.896Z,99.90
2019-02-12T19:16:48.742Z,99.90
2019-02-12T19:19:18.474Z,99.90
2019-02-12T19:21:48.392Z,99.90
2019-02-12T19:24:18.225Z,99.90
2019-02-12T19:26:49.928Z,99.90
2019-02-12T19:29:19.618Z,99.90
2019-02-12T19:31:49.439Z,99.90
2019-02-12T19:34:19.248Z,99.90
2019-02-12T19:36:49.366Z,99.90
2019-02-12T19:39:19.151Z,99.90
2019-02-12T19:41:48.903Z,99.90
2019-02-12T19:44:18.907Z,99.90
2019-02-12T19:46:48.722Z,99.90
2019-02-12T19:49:18.489Z,99.90
2019-02-12T19:51:48.653Z,99.90
2019-02-12T19:54:18.477Z,99.90
2019-02-12T19:56:48.338Z,99.90
2019-02-12T19:59:18.270Z,99.90
2019-02-12T20:01:48.371Z,99.90
2019-02-12T20:04:18.174Z,99.90
2019-02-12T20:06:48.098Z,99.90
2019-02-12T20:09:22.619Z,99.90
2019-02-12T20:11:52.598Z,99.90
2019-02-12T20:14:22.530Z,99.90
2019-02-12T20:16:52.488Z,99.90
2019-02-12T20:19:22.696Z,99.90
2019-02-12T20:21:52.551Z,99.90
2019-02-12T20:24:22.507Z,99.90
2019-02-12T20:26:52.835Z,99.90
2019-02-12T20:29:22.761Z,99.90
2019-02-12T20:31:53.177Z,99.90
2019-02-12T20:34:23.059Z,99.90
2019-02-12T20:36:53.045Z,99.90
2019-02-12T20:39:23.339Z,99.90
2019-02-12T20:41:53.292Z,99.90
2019-02-12T20:44:23.203Z,99.90
2019-02-12T20:46:53.787Z,99.90
2019-02-12T20:49:23.698Z,99.90
2019-02-12T20:51:53.630Z,99.90
2019-02-12T20:54:23.969Z,99.90
2019-02-12T20:56:53.864Z,99.90
2019-02-12T20:59:23.740Z,99.90
2019-02-12T21:01:54.533Z,99.90
2019-02-12T21:04:24.419Z,99.90
2019-02-12T21:06:54.610Z,99.90
2019-02-12T21:09:24.880Z,99.90
2019-02-12T21:11:54.855Z,99.90
2019-02-12T21:14:24.777Z,99.90
2019-02-12T21:16:55.196Z,99.90
2019-02-12T21:19:25.132Z,99.90
2019-02-12T21:21:55.020Z,99.90
2019-02-12T21:24:25.083Z,99.90
2019-02-12T21:26:54.987Z,99.90
2019-02-12T21:29:24.898Z,99.90
2019-02-12T21:31:55.558Z,99.90
2019-02-12T21:34:25.436Z,99.90
2019-02-12T21:36:55.373Z,99.90
2019-02-12T21:39:25.919Z,99.90
2019-02-12T21:41:55.866Z,99.90
2019-02-12T21:44:25.765Z,99.90
2019-02-12T21:46:56.170Z,99.90
2019-02-12T21:49:26.054Z,99.90
2019-02-12T21:51:55.984Z,99.90
2019-02-12T21:54:26.088Z,99.90
2019-02-12T21:56:55.974Z,99.90
2019-02-12T21:59:25.937Z,99.90
2019-02-12T22:01:56.075Z,99.90
2019-02-12T22:04:25.943Z,99.90
2019-02-12T22:06:55.861Z,99.90
2019-02-12T22:09:26.335Z,99.90
2019-02-12T22:11:56.241Z,99.90
2019-02-12T22:14:26.160Z,99.90
2019-02-12T22:16:56.515Z,99.90
2019-02-12T22:19:26.402Z,99.90
2019-02-12T22:21:56.313Z,99.90
2019-02-12T22:24:26.556Z,99.90
2019-02-12T22:26:56.475Z,99.90
2019-02-12T22:29:26.388Z,99.90
2019-02-12T22:31:56.817Z,99.90
2019-02-12T22:34:27.142Z,99.90
2019-02-12T22:36:57.235Z,99.90
2019-02-12T22:39:27.182Z,99.90
2019-02-12T22:41:57.064Z,99.90
2019-02-12T22:44:27.407Z,99.90
2019-02-12T22:46:57.384Z,99.90
2019-02-12T22:49:27.638Z,99.90
2019-02-12T22:51:58.405Z,99.90
2019-02-12T22:54:28.449Z,99.90
2019-02-12T22:56:58.370Z,99.90
2019-02-12T22:59:28.652Z,99.90
2019-02-12T23:01:58.614Z,99.90
2019-02-12T23:04:29.173Z,99.90
2019-02-12T23:06:59.069Z,99.90
2019-02-12T23:09:29.074Z,99.90
2019-02-12T23:11:59.328Z,99.90
2019-02-12T23:14:29.255Z,99.90
2019-02-12T23:16:59.236Z,99.90
2019-02-12T23:19:30.009Z,99.90
2019-02-12T23:21:59.945Z,99.90
2019-02-12T23:24:29.905Z,99.90
2019-02-12T23:26:59.935Z,99.90
2019-02-12T23:29:29.843Z,99.90
2019-02-12T23:31:59.810Z,99.90
2019-02-12T23:34:30.645Z,99.90
2019-02-12T23:37:00.575Z,99.90
2019-02-12T23:39:30.571Z,99.90
2019-02-12T23:42:00.819Z,99.90
2019-02-12T23:44:30.978Z,99.90
2019-02-12T23:47:01.349Z,99.90
2019-02-12T23:49:31.641Z,99.90
2019-02-12T23:52:01.535Z,99.90
2019-02-12T23:54:31.544Z,99.90
2019-02-12T23:57:01.465Z,99.90
2019-02-12T23:59:31.331Z,99.90
